Terminal Aerodrome Forecast
Issued by NWS

Home | Current Version | Previous Version | Text Only | Print | Product List | Glossary On
Versions: 1 2 3 4 5 6 7 8 9 10 11 12 13 14
927
FTUS45 KABQ 270522
TAFTCC
TAF
KTCC 270522Z 2706/2806 27007KT P6SM SCT120
     FM271930 14010KT P6SM SCT100
     FM272200 17014KT P6SM VCTS BKN090CB
     FM280000 VRB05KT P6SM VCSH BKN100
     FM280300 VRB05KT P6SM FEW130=

USA.gov is the U.S. government's official web portal to all federal, state and local government web resources and services.